Time;durP1;ratioP1;P1;durP2;ratioP2;P2;SDS_P1;SDS_P2;PMS_P1;PMS_P2;Temp;Humidity;BMP_temperature;BMP_pressure;BME280_temperature;BME280_humidity;BME280_pressure;Samples;Min_cycle;Max_cycle;Signal;HPM_P1;HPM_P2
2023/08/08 00:00:41;;;;;;;;;;;;;;;;;;6238017;28;20014;-75
2023/08/08 00:03:43;;;;;;;;;;;;;;;;;;6233269;28;19925;-77
2023/08/08 00:06:45;;;;;;;;;;;;;;;;;;6249479;28;19959;-79
2023/08/08 00:09:47;;;;;;;;;;;;;;;;;;6256497;28;19932;-76
2023/08/08 00:12:50;;;;;;;;;;;;;;;;;;6252107;28;19928;-79
2023/08/08 00:15:51;;;;;;;;;;;;;;;;;;6247137;28;19921;-78
2023/08/08 00:18:53;;;;;;;;;;;;;;;;;;6257481;28;19928;-78
2023/08/08 00:21:55;;;;;;;;;;;;;;;;;;6242791;28;20480;-79
2023/08/08 00:24:57;;;;;;;;;;;;;;;;;;6238446;28;20382;-78
2023/08/08 00:27:58;;;;;;;;;;;;;;;;;;6246187;28;19920;-78
2023/08/08 00:31:00;;;;;;;;;;;;;;;;;;6241990;28;19928;-79
2023/08/08 00:34:02;;;;;;;;;;;;;;;;;;6257521;28;19928;-79
2023/08/08 00:37:03;;;;;;;;;;;;;;;;;;6252606;28;19929;-79
2023/08/08 00:40:06;;;;;;;;;;;;;;;;;;6250088;28;20023;-75
2023/08/08 00:43:07;;;;;;;;;;;;;;;;;;6241262;28;19932;-76
2023/08/08 00:46:09;;;;;;;;;;;;;;;;;;6276196;28;19920;-76
2023/08/08 00:49:11;;;;;;;;;;;;;;;;;;6260942;28;20512;-76
2023/08/08 00:52:13;;;;;;;;;;;;;;;;;;6257867;28;19924;-77
2023/08/08 00:55:15;;;;;;;;;;;;;;;;;;6264918;28;19921;-79
2023/08/08 00:58:17;;;;;;;;;;;;;;;;;;6231316;28;19940;-78
2023/08/08 01:01:19;;;;;;;;;;;;;;;;;;6254692;28;19959;-76
2023/08/08 01:04:22;;;;;;;;;;;;;;;;;;6251998;28;19920;-75
2023/08/08 01:07:24;;;;;;;;;;;;;;;;;;6263060;28;19933;-76
2023/08/08 01:10:28;;;;;;;;;;;;;;;;;;6242764;28;19924;-78
2023/08/08 01:13:30;;;;;;;;;;;;;;;;;;6258889;28;19956;-78
2023/08/08 01:16:32;;;;;;;;;;;;;;;;;;6247518;28;19927;-77
2023/08/08 01:19:34;;;;;;;;;;;;;;;;;;6260481;28;19927;-77
2023/08/08 01:22:54;;;;;;;;;;;;;;;;;;6257130;28;19921;-78
2023/08/08 01:25:59;;;;;;;;;;;;;;;;;;6261024;28;19928;-79
2023/08/08 01:29:01;;;;;;;;;;;;;;;;;;6259498;28;20303;-77
2023/08/08 01:32:03;;;;;;;;;;;;;;;;;;6260035;28;19928;-78
2023/08/08 01:35:06;;;;;;;;;;;;;;;;;;6245158;28;20354;-75
2023/08/08 01:38:27;;;;;;;;;;;;;;;;;;6239816;28;20010;-79
2023/08/08 01:41:31;;;;;;;;;;;;;;;;;;6263233;28;19936;-76
2023/08/08 01:44:34;;;;;;;;;;;;;;;;;;6266374;28;19940;-77
2023/08/08 01:47:36;;;;;;;;;;;;;;;;;;6265580;28;19920;-76
2023/08/08 01:50:38;;;;;;;;;;;;;;;;;;6252091;28;19928;-77
2023/08/08 01:53:40;;;;;;;;;;;;;;;;;;6267138;28;20603;-78
2023/08/08 01:56:42;;;;;;;;;;;;;;;;;;6265974;28;19983;-77
2023/08/08 01:59:46;;;;;;;;;;;;;;;;;;6259579;28;19955;-78
2023/08/08 02:02:48;;;;;;;;;;;;;;;;;;6247709;28;19921;-77
2023/08/08 02:05:50;;;;;;;;;;;;;;;;;;6251698;28;20392;-77
2023/08/08 02:08:52;;;;;;;;;;;;;;;;;;6260963;28;19927;-77
2023/08/08 02:11:54;;;;;;;;;;;;;;;;;;6260992;28;19921;-75
2023/08/08 02:14:59;;;;;;;;;;;;;;;;;;6257952;28;19921;-76
2023/08/08 02:18:01;;;;;;;;;;;;;;;;;;6260793;28;19929;-78
2023/08/08 02:21:02;;;;;;;;;;;;;;;;;;6244701;28;19920;-79
2023/08/08 02:24:05;;;;;;;;;;;;;;;;;;6246460;28;19925;-78
2023/08/08 02:27:07;;;;;;;;;;;;;;;;;;6244164;28;19928;-78
2023/08/08 02:30:10;;;;;;;;;;;;;;;;;;6240209;28;20011;-76
2023/08/08 02:33:11;;;;;;;;;;;;;;;;;;6242024;28;19935;-78
2023/08/08 02:36:13;;;;;;;;;;;;;;;;;;6219280;28;19928;-78
2023/08/08 02:39:15;;;;;;;;;;;;;;;;;;6259050;28;19971;-77
2023/08/08 02:42:16;;;;;;;;;;;;;;;;;;6239692;28;20018;-78
2023/08/08 02:45:18;;;;;;;;;;;;;;;;;;6240962;28;19927;-79
2023/08/08 02:48:20;;;;;;;;;;;;;;;;;;6251066;28;19921;-78
2023/08/08 02:51:22;;;;;;;;;;;;;;;;;;6254899;28;19927;-78
2023/08/08 02:54:23;;;;;;;;;;;;;;;;;;6225218;28;19928;-76
2023/08/08 02:57:25;;;;;;;;;;;;;;;;;;6251204;28;19921;-77
2023/08/08 03:00:29;;;;;;;;;;;;;;;;;;6238597;28;19940;-79
2023/08/08 03:03:32;;;;;;;;;;;;;;;;;;6258001;28;19921;-77
2023/08/08 03:06:34;;;;;;;;;;;;;;;;;;6252552;28;19924;-77
2023/08/08 03:09:36;;;;;;;;;;;;;;;;;;6249710;28;19970;-76
2023/08/08 03:12:39;;;;;;;;;;;;;;;;;;6238499;28;19920;-76
2023/08/08 03:15:41;;;;;;;;;;;;;;;;;;6253861;28;20460;-78
2023/08/08 03:18:43;;;;;;;;;;;;;;;;;;6253254;28;19925;-77
2023/08/08 03:21:45;;;;;;;;;;;;;;;;;;6233278;28;19931;-76
2023/08/08 03:24:47;;;;;;;;;;;;;;;;;;6249788;28;19940;-77
2023/08/08 03:27:49;;;;;;;;;;;;;;;;;;6237344;28;19924;-75
2023/08/08 03:30:51;;;;;;;;;;;;;;;;;;6232616;28;19921;-77
2023/08/08 03:33:53;;;;;;;;;;;;;;;;;;6251766;28;20402;-75
2023/08/08 03:36:55;;;;;;;;;;;;;;;;;;6254610;28;19925;-78
2023/08/08 03:39:57;;;;;;;;;;;;;;;;;;6250823;28;19928;-78
2023/08/08 03:42:58;;;;;;;;;;;;;;;;;;6255504;28;19925;-78
2023/08/08 03:46:00;;;;;;;;;;;;;;;;;;6252674;28;19924;-77
2023/08/08 03:49:03;;;;;;;;;;;;;;;;;;6240072;28;20022;-75
2023/08/08 03:52:05;;;;;;;;;;;;;;;;;;6253079;28;19944;-79
2023/08/08 03:55:07;;;;;;;;;;;;;;;;;;6235181;28;19932;-78
2023/08/08 03:58:08;;;;;;;;;;;;;;;;;;6226818;28;19956;-75
2023/08/08 04:01:10;;;;;;;;;;;;;;;;;;6233886;28;20401;-75
2023/08/08 04:04:12;;;;;;;;;;;;;;;;;;6230648;28;20015;-76
2023/08/08 04:07:13;;;;;;;;;;;;;;;;;;6230219;28;19928;-75
2023/08/08 04:10:15;;;;;;;;;;;;;;;;;;6247975;28;20429;-74
2023/08/08 04:13:17;;;;;;;;;;;;;;;;;;6229438;28;19928;-77
2023/08/08 04:16:18;;;;;;;;;;;;;;;;;;6250599;28;19967;-77
2023/08/08 04:19:20;;;;;;;;;;;;;;;;;;6246954;28;19921;-75
2023/08/08 04:22:21;;;;;;;;;;;;;;;;;;6229472;28;20021;-75
2023/08/08 04:25:23;;;;;;;;;;;;;;;;;;6233569;28;19921;-76
2023/08/08 04:28:24;;;;;;;;;;;;;;;;;;6243613;28;19920;-77
2023/08/08 04:31:26;;;;;;;;;;;;;;;;;;6250875;28;19960;-75
2023/08/08 04:34:28;;;;;;;;;;;;;;;;;;6234527;28;19936;-76
2023/08/08 04:37:29;;;;;;;;;;;;;;;;;;6244412;28;19968;-75
2023/08/08 04:40:31;;;;;;;;;;;;;;;;;;6244301;28;20013;-77
2023/08/08 04:43:32;;;;;;;;;;;;;;;;;;6230139;28;19924;-76
2023/08/08 04:46:34;;;;;;;;;;;;;;;;;;6248269;28;19987;-77
2023/08/08 04:49:36;;;;;;;;;;;;;;;;;;6244041;28;19936;-76
2023/08/08 04:52:37;;;;;;;;;;;;;;;;;;6246964;28;20021;-76
2023/08/08 04:55:39;;;;;;;;;;;;;;;;;;6251163;28;20631;-76
2023/08/08 04:58:40;;;;;;;;;;;;;;;;;;6252450;28;19983;-77
2023/08/08 05:01:42;;;;;;;;;;;;;;;;;;6248555;28;20005;-76
2023/08/08 05:04:43;;;;;;;;;;;;;;;;;;6248875;28;19927;-75
2023/08/08 05:07:45;;;;;;;;;;;;;;;;;;6249852;28;20587;-77
2023/08/08 05:10:46;;;;;;;;;;;;;;;;;;6248696;28;20017;-77
2023/08/08 05:13:48;;;;;;;;;;;;;;;;;;6248390;28;20014;-77
2023/08/08 05:16:50;;;;;;;;;;;;;;;;;;6251233;28;20397;-74
2023/08/08 05:19:52;;;;;;;;;;;;;;;;;;6239725;28;19924;-76
2023/08/08 05:22:54;;;;;;;;;;;;;;;;;;6251060;28;19920;-77
2023/08/08 05:25:55;;;;;;;;;;;;;;;;;;6249516;28;20896;-76
2023/08/08 05:28:57;;;;;;;;;;;;;;;;;;6221195;28;19975;-75
2023/08/08 05:31:58;;;;;;;;;;;;;;;;;;6262148;28;19963;-75
2023/08/08 05:35:03;;;;;;;;;;;;;;;;;;6259818;28;19920;-77
2023/08/08 05:38:05;;;;;;;;;;;;;;;;;;6253639;28;19928;-76
2023/08/08 05:41:06;;;;;;;;;;;;;;;;;;6249357;28;20430;-76
2023/08/08 05:44:08;;;;;;;;;;;;;;;;;;6254483;28;20379;-76
2023/08/08 05:47:10;;;;;;;;;;;;;;;;;;6255742;28;19932;-75
2023/08/08 05:50:11;;;;;;;;;;;;;;;;;;6269392;28;19986;-75
2023/08/08 05:53:13;;;;;;;;;;;;;;;;;;6269623;28;19921;-78
2023/08/08 05:56:15;;;;;;;;;;;;;;;;;;6266217;28;19921;-77
2023/08/08 05:59:16;;;;;;;;;;;;;;;;;;6265265;28;19921;-77
2023/08/08 06:02:18;;;;;;;;;;;;;;;;;;6262483;28;20658;-73
2023/08/08 06:05:21;;;;;;;;;;;;;;;;;;6271041;28;19928;-76
2023/08/08 06:08:23;;;;;;;;;;;;;;;;;;6265282;28;19932;-76
2023/08/08 06:11:25;;;;;;;;;;;;;;;;;;6266148;28;19944;-77
2023/08/08 06:14:26;;;;;;;;;;;;;;;;;;6233683;28;19960;-78
2023/08/08 06:17:28;;;;;;;;;;;;;;;;;;6243594;28;19921;-76
2023/08/08 06:20:29;;;;;;;;;;;;;;;;;;6262359;28;19929;-77
2023/08/08 06:23:31;;;;;;;;;;;;;;;;;;6258056;28;20022;-75
2023/08/08 06:26:33;;;;;;;;;;;;;;;;;;6256634;28;19955;-77
2023/08/08 06:29:35;;;;;;;;;;;;;;;;;;6243104;28;20007;-76
2023/08/08 06:32:37;;;;;;;;;;;;;;;;;;6262955;28;20560;-76
2023/08/08 06:35:38;;;;;;;;;;;;;;;;;;6259837;28;19936;-77
2023/08/08 06:38:40;;;;;;;;;;;;;;;;;;6262863;28;19925;-76
2023/08/08 06:41:42;;;;;;;;;;;;;;;;;;6266457;28;19939;-76
2023/08/08 06:44:44;;;;;;;;;;;;;;;;;;6263028;28;19982;-76
2023/08/08 06:47:46;;;;;;;;;;;;;;;;;;6269744;28;19921;-77
2023/08/08 06:50:47;;;;;;;;;;;;;;;;;;6262856;28;19927;-77
2023/08/08 06:53:49;;;;;;;;;;;;;;;;;;6266361;28;19920;-76
2023/08/08 06:56:51;;;;;;;;;;;;;;;;;;6258705;28;19921;-77
2023/08/08 06:59:53;;;;;;;;;;;;;;;;;;6264146;28;19920;-76
2023/08/08 07:02:54;;;;;;;;;;;;;;;;;;6263266;28;19926;-77
2023/08/08 07:05:56;;;;;;;;;;;;;;;;;;6263627;28;19921;-77
2023/08/08 07:08:58;;;;;;;;;;;;;;;;;;6261020;28;19932;-77
2023/08/08 07:15:00;;;;;;;3.22;2.13;;;;;;;;;;6280795;27;1262933;-76
2023/08/08 07:18:02;;;;;;;4.75;2.13;;;;;;;;;;6284352;28;20470;-75
2023/08/08 07:21:04;;;;;;;3.15;2.50;;;;;;;;;;6281700;28;20056;-75
2023/08/08 07:24:05;;;;;;;2.45;2.22;;;;;;;;;;6288283;28;20438;-76
2023/08/08 07:27:07;;;;;;;4.70;2.35;;;;;;;;;;6284399;28;20040;-77
2023/08/08 07:30:09;;;;;;;4.18;2.20;;;;;;;;;;6290877;28;20052;-75
2023/08/08 07:33:11;;;;;;;3.20;2.60;;;;;;;;;;6277672;28;20041;-74
2023/08/08 07:36:13;;;;;;;6.30;2.50;;;;;;;;;;6291666;28;20055;-76
2023/08/08 07:39:14;;;;;;;5.50;2.42;;;;;;;;;;6276318;28;20181;-75
2023/08/08 07:42:16;;;;;;;3.80;2.53;;;;;;;;;;6287946;28;20122;-76
2023/08/08 07:45:18;;;;;;;4.80;2.28;;;;;;;;;;6283677;28;20696;-77
2023/08/08 07:48:20;;;;;;;3.85;2.50;;;;;;;;;;6287030;28;20053;-76
2023/08/08 07:51:22;;;;;;;6.47;2.75;;;;;;;;;;6285751;28;20060;-76
2023/08/08 07:54:23;;;;;;;8.55;3.58;;;;;;;;;;6299790;28;20893;-76
2023/08/08 07:57:27;;;;;;;3.47;2.55;;;;;;;;;;6284473;28;20048;-74
2023/08/08 08:00:28;;;;;;;4.97;3.03;;;;;;;;;;6281251;28;20049;-75
2023/08/08 08:03:30;;;;;;;6.53;2.70;;;;;;;;;;6281805;28;20052;-75
2023/08/08 08:06:32;;;;;;;5.60;2.70;;;;;;;;;;6281348;28;20045;-74
2023/08/08 08:09:34;;;;;;;5.97;2.97;;;;;;;;;;6278408;28;20049;-75
2023/08/08 08:12:36;;;;;;;5.20;3.25;;;;;;;;;;6282386;28;20041;-76
2023/08/08 08:15:38;;;;;;;6.80;2.53;;;;;;;;;;6280355;28;20052;-76
2023/08/08 08:18:40;;;;;;;6.57;2.80;;;;;;;;;;6277876;28;20523;-74
2023/08/08 08:21:41;;;;;;;5.82;2.95;;;;;;;;;;6276096;28;20452;-76
2023/08/08 08:24:43;;;;;;;6.18;3.00;;;;;;;;;;6272218;28;20048;-76
2023/08/08 08:27:45;;;;;;;5.53;3.53;;;;;;;;;;6265597;28;20053;-76
2023/08/08 08:30:46;;;;;;;3.38;2.63;;;;;;;;;;6284968;28;20051;-76
2023/08/08 08:33:48;;;;;;;5.00;3.05;;;;;;;;;;6289669;28;20059;-75
2023/08/08 08:36:50;;;;;;;4.35;2.60;;;;;;;;;;6272523;28;20044;-76
2023/08/08 08:39:52;;;;;;;3.67;2.55;;;;;;;;;;6287919;28;20040;-76
2023/08/08 08:42:54;;;;;;;5.03;2.47;;;;;;;;;;6280032;28;20036;-75
2023/08/08 08:45:59;;;;;;;3.90;2.47;;;;;;;;;;6280548;28;20080;-74
2023/08/08 08:49:05;;;;;;;8.13;3.28;;;;;;;;;;6284890;28;20056;-75
2023/08/08 08:52:07;;;;;;;2.35;2.15;;;;;;;;;;6285910;28;20071;-76
2023/08/08 08:55:09;;;;;;;3.75;2.28;;;;;;;;;;6288007;28;20182;-77
2023/08/08 08:58:14;;;;;;;4.22;2.40;;;;;;;;;;6277411;28;20077;-77
2023/08/08 09:01:17;;;;;;;2.88;2.40;;;;;;;;;;6298827;28;20040;-78
2023/08/08 09:04:21;;;;;;;2.40;2.20;;;;;;;;;;6278778;28;20072;-77
2023/08/08 09:07:26;;;;;;;4.72;2.22;;;;;;;;;;6287438;28;20101;-76
2023/08/08 09:10:31;;;;;;;6.35;2.47;;;;;;;;;;6266937;28;20050;-79
2023/08/08 09:13:40;;;;;;;2.60;1.90;;;;;;;;;;6259901;28;20422;-77
2023/08/08 09:16:43;;;;;;;4.00;1.80;;;;;;;;;;6241340;28;20044;-77
2023/08/08 09:19:46;;;;;;;5.82;1.75;;;;;;;;;;6259027;28;20046;-77
2023/08/08 09:22:48;;;;;;;3.55;1.50;;;;;;;;;;6239897;28;20037;-78
2023/08/08 09:25:50;;;;;;;1.98;1.48;;;;;;;;;;6252429;28;20526;-75
2023/08/08 09:28:52;;;;;;;3.40;1.60;;;;;;;;;;6240528;28;20044;-76
2023/08/08 09:31:54;;;;;;;3.20;1.50;;;;;;;;;;6245504;28;20640;-77
2023/08/08 09:34:57;;;;;;;5.32;1.88;;;;;;;;;;6256805;28;20060;-73
2023/08/08 09:37:59;;;;;;;;;;;;;;;;;;6277760;28;20040;-76
2023/08/08 09:41:00;;;;;;;3.38;1.80;;;;;;;;;;6279866;28;19920;-78
2023/08/08 09:44:02;;;;;;;2.78;1.83;;;;;;;;;;6267221;28;20052;-74
2023/08/08 09:47:04;;;;;;;4.32;1.60;;;;;;;;;;6279736;28;20056;-76
2023/08/08 09:50:07;;;;;;;3.33;1.60;;;;;;;;;;6256591;28;20048;-75
2023/08/08 09:53:09;;;;;;;2.58;1.70;;;;;;;;;;6254919;28;20533;-77
2023/08/08 09:56:12;;;;;;;3.88;1.73;;;;;;;;;;6253956;28;20097;-77
2023/08/08 09:59:14;;;;;;;3.60;1.80;;;;;;;;;;6253147;28;20048;-75
2023/08/08 10:02:16;;;;;;;2.13;1.73;;;;;;;;;;6257765;28;20045;-78
2023/08/08 10:05:17;;;;;;;2.75;1.50;;;;;;;;;;6258715;28;20049;-74
2023/08/08 10:08:20;;;;;;;2.60;1.70;;;;;;;;;;6257595;28;20350;-78
2023/08/08 10:11:23;;;;;;;3.15;1.70;;;;;;;;;;6254696;28;20087;-76
2023/08/08 10:14:31;;;;;;;3.42;1.73;;;;;;;;;;6243320;28;20056;-77
2023/08/08 10:17:39;;;;;;;4.28;1.75;;;;;;;;;;6241271;28;20041;-77
2023/08/08 10:20:47;;;;;;;4.28;2.00;;;;;;;;;;6258926;28;20080;-77
2023/08/08 10:23:49;;;;;;;2.08;1.80;;;;;;;;;;6279146;28;20064;-77
2023/08/08 10:27:00;;;;;;;3.08;1.48;;;;;;;;;;6282617;28;20040;-77
2023/08/08 10:30:10;;;;;;;2.35;1.73;;;;;;;;;;6280476;28;20037;-76
2023/08/08 10:33:42;;;;;;;2.83;1.77;;;;;;;;;;6256009;28;20045;-77
2023/08/08 10:36:49;;;;;;;3.58;1.75;;;;;;;;;;6241279;28;20056;-76
2023/08/08 10:40:00;;;;;;;2.97;1.52;;;;;;;;;;6250728;28;20041;-74
2023/08/08 10:43:11;;;;;;;2.50;1.63;;;;;;;;;;6250670;28;20618;-76
2023/08/08 10:46:31;;;;;;;2.63;1.63;;;;;;;;;;6258724;28;20178;-75
2023/08/08 10:49:34;;;;;;;2.67;1.70;;;;;;;;;;6254749;28;20045;-75
2023/08/08 10:52:56;;;;;;;2.67;1.50;;;;;;;;;;6231584;28;20420;-76
2023/08/08 10:56:03;;;;;;;5.05;1.70;;;;;;;;;;6244380;28;20055;-74
2023/08/08 10:59:16;;;;;;;2.72;1.60;;;;;;;;;;6270663;28;20464;-76
2023/08/08 11:02:19;;;;;;;3.15;1.40;;;;;;;;;;6239431;28;20037;-76
2023/08/08 11:05:22;;;;;;;;;;;;;;;;;;6248548;28;20053;-76
2023/08/08 11:08:24;;;;;;;4.13;1.83;;;;;;;;;;6262358;28;20365;-76
2023/08/08 11:11:25;;;;;;;2.67;1.30;;;;;;;;;;6236781;28;20109;-76
2023/08/08 11:14:27;;;;;;;3.42;1.42;;;;;;;;;;6245835;28;20045;-75
2023/08/08 11:17:29;;;;;;;2.00;1.60;;;;;;;;;;6249376;28;20056;-76
2023/08/08 11:20:33;;;;;;;5.15;1.40;;;;;;;;;;6231875;28;20045;-76
2023/08/08 11:23:38;;;;;;;2.60;1.48;;;;;;;;;;6234511;28;20094;-77
2023/08/08 11:26:41;;;;;;;2.60;1.40;;;;;;;;;;6234380;28;20462;-75
2023/08/08 11:29:50;;;;;;;1.90;1.25;;;;;;;;;;6250167;28;20404;-77
2023/08/08 11:32:52;;;;;;;4.80;1.30;;;;;;;;;;6257994;28;20061;-74
2023/08/08 11:35:56;;;;;;;3.92;1.20;;;;;;;;;;6277654;28;20357;-75
2023/08/08 11:39:07;;;;;;;2.22;1.35;;;;;;;;;;6258344;28;20049;-75
2023/08/08 11:42:09;;;;;;;2.15;1.10;;;;;;;;;;6269963;28;20060;-74
2023/08/08 11:45:12;;;;;;;2.67;1.40;;;;;;;;;;6272384;28;20059;-75
2023/08/08 11:48:14;;;;;;;1.38;1.05;;;;;;;;;;6273116;28;20037;-74
2023/08/08 11:51:17;;;;;;;1.90;1.05;;;;;;;;;;6275595;28;20041;-76
2023/08/08 11:54:18;;;;;;;2.22;1.30;;;;;;;;;;6257885;28;20136;-75
2023/08/08 11:57:20;;;;;;;3.40;1.40;;;;;;;;;;6267661;28;20058;-75
2023/08/08 12:00:26;;;;;;;2.70;1.20;;;;;;;;;;6266519;28;20044;-76
2023/08/08 12:03:28;;;;;;;2.95;1.23;;;;;;;;;;6254945;28;20526;-75
2023/08/08 12:06:30;;;;;;;3.28;1.30;;;;;;;;;;6258635;28;20779;-77
2023/08/08 12:09:33;;;;;;;2.05;1.25;;;;;;;;;;6255469;28;20057;-77
2023/08/08 12:12:36;;;;;;;;;;;;;;;;;;6261491;28;20045;-77
2023/08/08 12:15:42;;;;;;;3.85;1.35;;;;;;;;;;6277908;28;20386;-76
2023/08/08 12:18:44;;;;;;;3.00;1.10;;;;;;;;;;6277228;28;20721;-77
2023/08/08 12:21:47;;;;;;;2.58;1.27;;;;;;;;;;6261533;28;20126;-77
2023/08/08 12:24:49;;;;;;;2.00;1.10;;;;;;;;;;6266114;28;20037;-76
2023/08/08 12:27:51;;;;;;;2.10;1.20;;;;;;;;;;6250748;28;20056;-76
2023/08/08 12:30:53;;;;;;;1.33;1.03;;;;;;;;;;6251928;28;20048;-76
2023/08/08 12:33:54;;;;;;;1.27;1.02;;;;;;;;;;6255301;28;20041;-77
2023/08/08 12:36:56;;;;;;;3.53;1.33;;;;;;;;;;6255376;28;20407;-75
2023/08/08 12:39:58;;;;;;;3.83;1.40;;;;;;;;;;6270205;28;20057;-76
2023/08/08 12:43:00;;;;;;;3.13;0.95;;;;;;;;;;6253243;28;20060;-77
2023/08/08 12:46:02;;;;;;;2.40;1.10;;;;;;;;;;6259571;28;20087;-75
2023/08/08 12:49:04;;;;;;;4.00;1.30;;;;;;;;;;6286530;28;20043;-74
2023/08/08 12:52:05;;;;;;;3.13;1.30;;;;;;;;;;6280435;28;20051;-76
2023/08/08 12:55:08;;;;;;;2.00;1.35;;;;;;;;;;6280866;28;20044;-75
2023/08/08 12:58:10;;;;;;;2.28;1.10;;;;;;;;;;6277961;28;20048;-76
2023/08/08 13:01:12;;;;;;;4.38;1.30;;;;;;;;;;6280763;28;20045;-76
2023/08/08 13:04:14;;;;;;;3.15;1.25;;;;;;;;;;6279427;28;20075;-75
2023/08/08 13:07:18;;;;;;;3.30;1.08;;;;;;;;;;6259850;28;20045;-75
2023/08/08 13:10:20;;;;;;;2.85;1.23;;;;;;;;;;6279051;28;20052;-76
2023/08/08 13:13:24;;;;;;;3.20;1.48;;;;;;;;;;6281179;28;20047;-77
2023/08/08 13:16:26;;;;;;;3.17;1.30;;;;;;;;;;6278559;28;20048;-76
2023/08/08 13:19:28;;;;;;;2.65;1.40;;;;;;;;;;6278655;28;20097;-76
2023/08/08 13:22:29;;;;;;;4.80;1.33;;;;;;;;;;6263497;28;20044;-76
2023/08/08 13:25:34;;;;;;;2.05;1.17;;;;;;;;;;6279822;28;20052;-76
2023/08/08 13:28:35;;;;;;;3.60;1.20;;;;;;;;;;6234869;28;20057;-75
2023/08/08 13:31:38;;;;;;;3.80;1.40;;;;;;;;;;6255172;28;20041;-76
2023/08/08 13:34:39;;;;;;;2.47;1.30;;;;;;;;;;6256555;28;20041;-76
2023/08/08 13:37:41;;;;;;;3.58;1.50;;;;;;;;;;6247355;28;20055;-76
2023/08/08 13:40:44;;;;;;;3.03;1.10;;;;;;;;;;6277582;28;20502;-77
2023/08/08 13:43:45;;;;;;;;;;;;;;;;;;6293209;28;20033;-76
2023/08/08 13:46:47;;;;;;;3.72;1.30;;;;;;;;;;6282701;28;19920;-75
2023/08/08 13:49:49;;;;;;;5.03;1.40;;;;;;;;;;6270005;28;20040;-75
2023/08/08 13:52:52;;;;;;;3.75;1.33;;;;;;;;;;6280943;28;20063;-77
2023/08/08 13:55:54;;;;;;;;;;;;;;;;;;6259148;28;20113;-77
2023/08/08 13:58:56;;;;;;;1.65;1.05;;;;;;;;;;6272931;28;19931;-77
2023/08/08 14:01:57;;;;;;;2.13;1.10;;;;;;;;;;6293819;28;20044;-78
2023/08/08 14:05:00;;;;;;;6.38;1.50;;;;;;;;;;6277231;28;20122;-77
2023/08/08 14:08:01;;;;;;;4.90;1.40;;;;;;;;;;6241468;28;20052;-77
2023/08/08 14:11:03;;;;;;;4.25;1.65;;;;;;;;;;6250378;28;20049;-77
2023/08/08 14:14:05;;;;;;;3.15;1.30;;;;;;;;;;6250908;28;20659;-76
2023/08/08 14:17:06;;;;;;;4.32;1.20;;;;;;;;;;6237225;28;20203;-77
2023/08/08 14:20:09;;;;;;;4.38;1.25;;;;;;;;;;6250961;28;20063;-77
2023/08/08 14:23:11;;;;;;;3.00;1.38;;;;;;;;;;6234195;28;20044;-77
2023/08/08 14:26:13;;;;;;;2.45;1.40;;;;;;;;;;6253820;28;20495;-74
2023/08/08 14:29:14;;;;;;;4.95;1.58;;;;;;;;;;6253130;28;20044;-76
2023/08/08 14:32:16;;;;;;;2.92;1.25;;;;;;;;;;6253820;28;20033;-77
2023/08/08 14:35:18;;;;;;;2.60;1.33;;;;;;;;;;6272468;28;20109;-76
2023/08/08 14:38:24;;;;;;;2.03;1.48;;;;;;;;;;6280058;28;20525;-75
2023/08/08 14:41:25;;;;;;;2.58;1.40;;;;;;;;;;6254717;28;20077;-76
2023/08/08 14:44:27;;;;;;;4.65;1.50;;;;;;;;;;6240542;28;20048;-77
2023/08/08 14:47:29;;;;;;;3.40;1.42;;;;;;;;;;6271407;28;20118;-77
2023/08/08 14:50:32;;;;;;;2.58;1.40;;;;;;;;;;6255860;28;20075;-78
2023/08/08 14:53:33;;;;;;;3.15;1.08;;;;;;;;;;6256566;28;20502;-76
2023/08/08 14:56:35;;;;;;;2.67;1.10;;;;;;;;;;6252357;28;20045;-76
2023/08/08 14:59:37;;;;;;;5.68;1.40;;;;;;;;;;6257526;28;20052;-75
2023/08/08 15:02:39;;;;;;;6.13;1.60;;;;;;;;;;6257706;28;20052;-76
2023/08/08 15:05:40;;;;;;;4.75;1.27;;;;;;;;;;6259137;28;20526;-77
2023/08/08 15:08:43;;;;;;;3.17;1.27;;;;;;;;;;6246240;28;20041;-77
2023/08/08 15:11:44;;;;;;;3.55;1.50;;;;;;;;;;6270742;28;20068;-77
2023/08/08 15:14:46;;;;;;;2.15;1.08;;;;;;;;;;6269016;28;20049;-76
2023/08/08 15:17:47;;;;;;;2.85;1.27;;;;;;;;;;6247486;28;20081;-78
2023/08/08 15:20:49;;;;;;;1.98;1.00;;;;;;;;;;6258323;28;20048;-77
2023/08/08 15:23:51;;;;;;;5.25;1.05;;;;;;;;;;6255929;28;20052;-78
2023/08/08 15:26:53;;;;;;;3.22;1.20;;;;;;;;;;6261612;28;20126;-76
2023/08/08 15:29:54;;;;;;;4.25;1.30;;;;;;;;;;6255182;28;20044;-75
2023/08/08 15:32:56;;;;;;;3.72;1.17;;;;;;;;;;6239479;28;20041;-78
2023/08/08 15:35:58;;;;;;;2.97;1.30;;;;;;;;;;6261232;28;20045;-78
2023/08/08 15:38:59;;;;;;;3.10;1.38;;;;;;;;;;6261389;28;20052;-77
2023/08/08 15:42:02;;;;;;;2.97;1.10;;;;;;;;;;6229510;28;20041;-77
2023/08/08 15:45:04;;;;;;;2.40;1.17;;;;;;;;;;6243895;28;20107;-77
2023/08/08 15:48:05;;;;;;;3.97;1.33;;;;;;;;;;6261358;28;20041;-75
2023/08/08 15:51:07;;;;;;;4.00;1.10;;;;;;;;;;6263276;28;20041;-77
2023/08/08 15:54:09;;;;;;;2.28;0.90;;;;;;;;;;6259365;28;20045;-77
2023/08/08 15:57:11;;;;;;;3.30;1.30;;;;;;;;;;6255901;28;20509;-77
2023/08/08 16:00:15;;;;;;;2.47;1.15;;;;;;;;;;6256274;28;20079;-78
2023/08/08 16:03:17;;;;;;;3.28;1.10;;;;;;;;;;6242313;28;20595;-77
2023/08/08 16:06:19;;;;;;;1.30;0.90;;;;;;;;;;6280673;28;20451;-77
2023/08/08 16:09:30;;;;;;;2.78;0.90;;;;;;;;;;6273020;28;20040;-77
2023/08/08 16:12:56;;;;;;;4.90;1.00;;;;;;;;;;6293973;28;20041;-76
2023/08/08 16:16:07;;;;;;;2.35;1.30;;;;;;;;;;6283730;28;20040;-76
2023/08/08 16:19:08;;;;;;;3.63;1.00;;;;;;;;;;6306920;28;20040;-78
2023/08/08 16:22:10;;;;;;;4.03;1.10;;;;;;;;;;6285422;28;20041;-77
2023/08/08 16:25:13;;;;;;;2.42;1.10;;;;;;;;;;6283312;28;20033;-76
2023/08/08 16:28:15;;;;;;;2.75;1.00;;;;;;;;;;6283017;28;20499;-74
2023/08/08 16:31:18;;;;;;;3.40;1.00;;;;;;;;;;6284822;28;20063;-75
2023/08/08 16:34:22;;;;;;;4.72;1.20;;;;;;;;;;6278560;28;20070;-75
2023/08/08 16:37:23;;;;;;;4.20;1.00;;;;;;;;;;6259576;28;20056;-78
2023/08/08 16:40:25;;;;;;;5.20;1.40;;;;;;;;;;6258374;28;20059;-77
2023/08/08 16:43:31;;;;;;;4.20;1.40;;;;;;;;;;6280228;28;20040;-75
2023/08/08 16:46:32;;;;;;;2.97;1.30;;;;;;;;;;6304842;28;20502;-74
2023/08/08 16:49:35;;;;;;;2.78;1.15;;;;;;;;;;6306241;28;20048;-76
2023/08/08 16:52:39;;;;;;;1.45;1.10;;;;;;;;;;6260902;28;20153;-77
2023/08/08 16:55:41;;;;;;;2.65;1.40;;;;;;;;;;6280907;28;20098;-77
2023/08/08 16:58:43;;;;;;;2.28;1.25;;;;;;;;;;6283254;28;20044;-76
2023/08/08 17:01:45;;;;;;;2.37;1.10;;;;;;;;;;6283664;28;20050;-77
2023/08/08 17:04:48;;;;;;;4.55;1.15;;;;;;;;;;6267071;28;20528;-75
2023/08/08 17:07:50;;;;;;;3.25;1.40;;;;;;;;;;6280379;28;20386;-78
2023/08/08 17:10:54;;;;;;;3.03;1.48;;;;;;;;;;6285939;28;20048;-77
2023/08/08 17:13:56;;;;;;;4.07;1.38;;;;;;;;;;6270734;28;20048;-74
2023/08/08 17:16:58;;;;;;;3.78;1.58;;;;;;;;;;6280850;28;20049;-77
2023/08/08 17:20:00;;;;;;;3.97;1.75;;;;;;;;;;6254975;28;20036;-76
2023/08/08 17:23:04;;;;;;;3.25;1.23;;;;;;;;;;6243469;28;20052;-78
2023/08/08 17:26:06;;;;;;;3.78;1.48;;;;;;;;;;6241039;28;20061;-77
2023/08/08 17:29:07;;;;;;;3.10;1.05;;;;;;;;;;6236498;28;20052;-76
2023/08/08 17:32:10;;;;;;;4.90;1.67;;;;;;;;;;6257276;28;20045;-76
2023/08/08 17:35:12;;;;;;;2.10;1.35;;;;;;;;;;6265233;28;20045;-74
2023/08/08 17:38:13;;;;;;;1.65;1.52;;;;;;;;;;6234301;28;20052;-77
2023/08/08 17:41:15;;;;;;;3.63;1.40;;;;;;;;;;6239838;28;20040;-76
2023/08/08 17:44:18;;;;;;;4.00;1.30;;;;;;;;;;6249365;28;20057;-77
2023/08/08 17:47:19;;;;;;;3.33;1.37;;;;;;;;;;6250008;28;21501;-74
2023/08/08 17:50:21;;;;;;;3.83;1.35;;;;;;;;;;6252774;28;20139;-76
2023/08/08 17:53:23;;;;;;;3.22;1.42;;;;;;;;;;6249997;28;20106;-76
2023/08/08 17:56:25;;;;;;;7.88;1.70;;;;;;;;;;6235281;28;20060;-77
2023/08/08 17:59:27;;;;;;;3.20;1.60;;;;;;;;;;6237468;28;20246;-77
2023/08/08 18:02:31;;;;;;;4.97;1.40;;;;;;;;;;6242812;28;20122;-76
2023/08/08 18:05:33;;;;;;;3.15;1.60;;;;;;;;;;6251129;28;20045;-77
2023/08/08 18:08:35;;;;;;;2.50;1.30;;;;;;;;;;6248012;28;20494;-76
2023/08/08 18:11:40;;;;;;;2.58;1.40;;;;;;;;;;6234052;28;20044;-77
2023/08/08 18:14:41;;;;;;;3.20;1.50;;;;;;;;;;6217196;28;20049;-77
2023/08/08 18:17:43;;;;;;;2.95;1.60;;;;;;;;;;6250776;28;20044;-76
2023/08/08 18:20:45;;;;;;;3.92;1.60;;;;;;;;;;6254311;28;20142;-76
2023/08/08 18:23:47;;;;;;;4.20;1.73;;;;;;;;;;6270320;28;20061;-77
2023/08/08 18:26:49;;;;;;;3.33;1.45;;;;;;;;;;6259027;28;20053;-75
2023/08/08 18:29:51;;;;;;;2.33;1.30;;;;;;;;;;6255517;28;20041;-75
2023/08/08 18:32:52;;;;;;;3.30;1.33;;;;;;;;;;6241979;28;20535;-78
2023/08/08 18:35:54;;;;;;;3.20;1.38;;;;;;;;;;6254677;28;20144;-77
2023/08/08 18:38:57;;;;;;;4.57;1.20;;;;;;;;;;6282383;28;20525;-75
2023/08/08 18:41:59;;;;;;;1.73;1.20;;;;;;;;;;6256330;28;20049;-77
2023/08/08 18:45:01;;;;;;;2.33;1.07;;;;;;;;;;6255719;28;20041;-77
2023/08/08 18:48:05;;;;;;;3.78;1.40;;;;;;;;;;6260411;28;20118;-77
2023/08/08 18:51:07;;;;;;;3.25;1.30;;;;;;;;;;6257581;28;20045;-77
2023/08/08 18:54:08;;;;;;;2.55;1.45;;;;;;;;;;6270019;28;20037;-74
2023/08/08 18:57:10;;;;;;;2.55;1.25;;;;;;;;;;6262020;28;20039;-76
2023/08/08 19:00:12;;;;;;;3.38;1.23;;;;;;;;;;6259824;28;20314;-77
2023/08/08 19:03:14;;;;;;;7.03;1.60;;;;;;;;;;6246001;28;20051;-78
2023/08/08 19:06:16;;;;;;;2.47;1.40;;;;;;;;;;6256765;28;20063;-77
2023/08/08 19:09:18;;;;;;;4.05;1.20;;;;;;;;;;6254772;28;20076;-76
2023/08/08 19:12:20;;;;;;;3.40;1.42;;;;;;;;;;6254834;28;20040;-76